sensor_id;sensor_type;location;lat;lon;timestamp;P1;durP1;ratioP1;P2;durP2;ratioP2
20695;SDS011;10507;52.754;13.040;2022-10-23T00:01:42;14.35;;;8.20;;
20695;SDS011;10507;52.754;13.040;2022-10-23T00:04:16;13.30;;;8.50;;
20695;SDS011;10507;52.754;13.040;2022-10-23T00:06:47;15.10;;;8.23;;
20695;SDS011;10507;52.754;13.040;2022-10-23T00:09:19;13.77;;;7.82;;
20695;SDS011;10507;52.754;13.040;2022-10-23T00:11:50;11.43;;;7.57;;
20695;SDS011;10507;52.754;13.040;2022-10-23T00:14:23;13.48;;;8.02;;
20695;SDS011;10507;52.754;13.040;2022-10-23T00:16:54;12.55;;;8.07;;
20695;SDS011;10507;52.754;13.040;2022-10-23T00:19:24;10.45;;;7.72;;
20695;SDS011;10507;52.754;13.040;2022-10-23T00:21:52;12.30;;;7.93;;
20695;SDS011;10507;52.754;13.040;2022-10-23T00:24:20;12.98;;;8.15;;
20695;SDS011;10507;52.754;13.040;2022-10-23T00:26:48;9.32;;;7.50;;
20695;SDS011;10507;52.754;13.040;2022-10-23T00:29:17;11.73;;;7.43;;
20695;SDS011;10507;52.754;13.040;2022-10-23T00:31:46;14.88;;;7.82;;
20695;SDS011;10507;52.754;13.040;2022-10-23T00:34:15;16.80;;;8.50;;
20695;SDS011;10507;52.754;13.040;2022-10-23T00:36:43;13.27;;;7.63;;
20695;SDS011;10507;52.754;13.040;2022-10-23T00:39:13;16.83;;;8.02;;
20695;SDS011;10507;52.754;13.040;2022-10-23T00:41:41;14.27;;;9.05;;
20695;SDS011;10507;52.754;13.040;2022-10-23T00:44:10;10.43;;;7.30;;
20695;SDS011;10507;52.754;13.040;2022-10-23T00:47:17;10.52;;;7.45;;
20695;SDS011;10507;52.754;13.040;2022-10-23T00:49:45;10.63;;;6.97;;
20695;SDS011;10507;52.754;13.040;2022-10-23T00:52:13;10.70;;;6.93;;
20695;SDS011;10507;52.754;13.040;2022-10-23T00:54:42;14.63;;;7.93;;
20695;SDS011;10507;52.754;13.040;2022-10-23T00:57:11;10.18;;;7.35;;
20695;SDS011;10507;52.754;13.040;2022-10-23T00:59:41;15.63;;;7.30;;
20695;SDS011;10507;52.754;13.040;2022-10-23T01:02:09;13.40;;;8.15;;
20695;SDS011;10507;52.754;13.040;2022-10-23T01:04:40;13.18;;;8.27;;
20695;SDS011;10507;52.754;13.040;2022-10-23T01:07:20;13.65;;;8.07;;
20695;SDS011;10507;52.754;13.040;2022-10-23T01:09:57;15.93;;;7.97;;
20695;SDS011;10507;52.754;13.040;2022-10-23T01:12:32;11.20;;;8.05;;
20695;SDS011;10507;52.754;13.040;2022-10-23T01:15:06;15.30;;;8.55;;
20695;SDS011;10507;52.754;13.040;2022-10-23T01:17:44;12.10;;;7.35;;
20695;SDS011;10507;52.754;13.040;2022-10-23T01:20:26;11.40;;;7.68;;
20695;SDS011;10507;52.754;13.040;2022-10-23T01:23:23;12.95;;;7.25;;
20695;SDS011;10507;52.754;13.040;2022-10-23T01:29:04;10.50;;;7.28;;
20695;SDS011;10507;52.754;13.040;2022-10-23T01:31:38;11.65;;;6.80;;
20695;SDS011;10507;52.754;13.040;2022-10-23T01:34:12;15.32;;;7.18;;
20695;SDS011;10507;52.754;13.040;2022-10-23T01:36:45;11.50;;;6.70;;
20695;SDS011;10507;52.754;13.040;2022-10-23T01:39:17;10.32;;;6.60;;
20695;SDS011;10507;52.754;13.040;2022-10-23T01:41:51;14.25;;;6.32;;
20695;SDS011;10507;52.754;13.040;2022-10-23T01:44:28;9.25;;;6.38;;
20695;SDS011;10507;52.754;13.040;2022-10-23T01:47:01;9.88;;;6.30;;
20695;SDS011;10507;52.754;13.040;2022-10-23T01:49:33;11.55;;;6.65;;
20695;SDS011;10507;52.754;13.040;2022-10-23T01:52:09;12.98;;;6.47;;
20695;SDS011;10507;52.754;13.040;2022-10-23T01:54:44;11.07;;;6.63;;
20695;SDS011;10507;52.754;13.040;2022-10-23T01:57:16;10.13;;;6.07;;
20695;SDS011;10507;52.754;13.040;2022-10-23T02:00:14;8.60;;;6.03;;
20695;SDS011;10507;52.754;13.040;2022-10-23T02:02:44;10.80;;;6.07;;
20695;SDS011;10507;52.754;13.040;2022-10-23T02:05:16;10.80;;;7.00;;
20695;SDS011;10507;52.754;13.040;2022-10-23T02:07:48;10.27;;;5.82;;
20695;SDS011;10507;52.754;13.040;2022-10-23T02:10:16;9.85;;;6.07;;
20695;SDS011;10507;52.754;13.040;2022-10-23T02:12:47;13.10;;;6.63;;
20695;SDS011;10507;52.754;13.040;2022-10-23T02:15:24;11.07;;;6.65;;
20695;SDS011;10507;52.754;13.040;2022-10-23T02:18:04;8.45;;;6.07;;
20695;SDS011;10507;52.754;13.040;2022-10-23T02:20:41;12.75;;;6.55;;
20695;SDS011;10507;52.754;13.040;2022-10-23T02:23:21;10.85;;;7.35;;
20695;SDS011;10507;52.754;13.040;2022-10-23T02:26:05;11.85;;;6.85;;
20695;SDS011;10507;52.754;13.040;2022-10-23T02:28:38;11.98;;;7.50;;
20695;SDS011;10507;52.754;13.040;2022-10-23T02:31:15;12.50;;;7.50;;
20695;SDS011;10507;52.754;13.040;2022-10-23T02:33:46;13.77;;;7.75;;
20695;SDS011;10507;52.754;13.040;2022-10-23T02:36:15;10.93;;;6.75;;
20695;SDS011;10507;52.754;13.040;2022-10-23T02:38:47;9.68;;;7.15;;
20695;SDS011;10507;52.754;13.040;2022-10-23T02:41:22;12.07;;;7.45;;
20695;SDS011;10507;52.754;13.040;2022-10-23T02:44:07;12.35;;;7.10;;
20695;SDS011;10507;52.754;13.040;2022-10-23T02:46:48;11.18;;;7.20;;
20695;SDS011;10507;52.754;13.040;2022-10-23T02:49:22;11.35;;;7.57;;
20695;SDS011;10507;52.754;13.040;2022-10-23T02:52:05;11.57;;;6.55;;
20695;SDS011;10507;52.754;13.040;2022-10-23T02:58:26;10.75;;;7.47;;
20695;SDS011;10507;52.754;13.040;2022-10-23T03:01:10;10.00;;;7.50;;
20695;SDS011;10507;52.754;13.040;2022-10-23T03:03:55;11.50;;;6.75;;
20695;SDS011;10507;52.754;13.040;2022-10-23T03:06:38;11.75;;;7.25;;
20695;SDS011;10507;52.754;13.040;2022-10-23T03:09:07;12.70;;;7.88;;
20695;SDS011;10507;52.754;13.040;2022-10-23T03:11:56;11.57;;;7.00;;
20695;SDS011;10507;52.754;13.040;2022-10-23T03:14:26;10.55;;;7.10;;
20695;SDS011;10507;52.754;13.040;2022-10-23T03:16:54;12.30;;;7.47;;
20695;SDS011;10507;52.754;13.040;2022-10-23T03:19:29;9.88;;;6.75;;
20695;SDS011;10507;52.754;13.040;2022-10-23T03:21:59;13.75;;;7.78;;
20695;SDS011;10507;52.754;13.040;2022-10-23T03:24:30;12.63;;;8.02;;
20695;SDS011;10507;52.754;13.040;2022-10-23T03:26:57;9.43;;;7.13;;
20695;SDS011;10507;52.754;13.040;2022-10-23T03:29:25;14.73;;;8.48;;
20695;SDS011;10507;52.754;13.040;2022-10-23T03:31:53;11.57;;;7.72;;
20695;SDS011;10507;52.754;13.040;2022-10-23T03:34:25;13.00;;;8.15;;
20695;SDS011;10507;52.754;13.040;2022-10-23T03:36:54;11.88;;;7.75;;
20695;SDS011;10507;52.754;13.040;2022-10-23T03:39:22;14.80;;;7.70;;
20695;SDS011;10507;52.754;13.040;2022-10-23T03:41:50;11.40;;;7.40;;
20695;SDS011;10507;52.754;13.040;2022-10-23T03:44:27;11.27;;;8.05;;
20695;SDS011;10507;52.754;13.040;2022-10-23T03:47:00;12.52;;;7.63;;
20695;SDS011;10507;52.754;13.040;2022-10-23T03:49:29;11.00;;;6.80;;
20695;SDS011;10507;52.754;13.040;2022-10-23T03:52:00;12.32;;;7.40;;
20695;SDS011;10507;52.754;13.040;2022-10-23T03:54:28;16.25;;;7.57;;
20695;SDS011;10507;52.754;13.040;2022-10-23T03:56:56;12.00;;;7.68;;
20695;SDS011;10507;52.754;13.040;2022-10-23T03:59:26;11.65;;;6.85;;
20695;SDS011;10507;52.754;13.040;2022-10-23T04:01:57;10.32;;;7.18;;
20695;SDS011;10507;52.754;13.040;2022-10-23T04:04:31;8.70;;;6.22;;
20695;SDS011;10507;52.754;13.040;2022-10-23T04:11:15;10.30;;;6.03;;
20695;SDS011;10507;52.754;13.040;2022-10-23T04:13:51;10.63;;;6.72;;
20695;SDS011;10507;52.754;13.040;2022-10-23T04:16:31;11.57;;;6.32;;
20695;SDS011;10507;52.754;13.040;2022-10-23T04:19:00;8.60;;;6.57;;
20695;SDS011;10507;52.754;13.040;2022-10-23T04:21:32;9.02;;;5.97;;
20695;SDS011;10507;52.754;13.040;2022-10-23T04:24:06;10.90;;;6.28;;
20695;SDS011;10507;52.754;13.040;2022-10-23T04:26:48;9.63;;;6.32;;
20695;SDS011;10507;52.754;13.040;2022-10-23T04:29:26;8.23;;;5.60;;
20695;SDS011;10507;52.754;13.040;2022-10-23T04:31:57;11.63;;;6.72;;
20695;SDS011;10507;52.754;13.040;2022-10-23T04:34:26;9.10;;;6.07;;
20695;SDS011;10507;52.754;13.040;2022-10-23T04:36:55;10.00;;;6.60;;
20695;SDS011;10507;52.754;13.040;2022-10-23T04:39:26;10.38;;;6.35;;
20695;SDS011;10507;52.754;13.040;2022-10-23T04:41:57;9.90;;;5.90;;
20695;SDS011;10507;52.754;13.040;2022-10-23T04:44:37;7.50;;;4.90;;
20695;SDS011;10507;52.754;13.040;2022-10-23T04:47:07;10.05;;;5.70;;
20695;SDS011;10507;52.754;13.040;2022-10-23T04:49:36;8.65;;;5.30;;
20695;SDS011;10507;52.754;13.040;2022-10-23T04:52:09;12.70;;;6.20;;
20695;SDS011;10507;52.754;13.040;2022-10-23T04:54:46;7.88;;;5.30;;
20695;SDS011;10507;52.754;13.040;2022-10-23T04:57:19;11.35;;;5.68;;
20695;SDS011;10507;52.754;13.040;2022-10-23T04:59:49;9.38;;;5.55;;
20695;SDS011;10507;52.754;13.040;2022-10-23T05:02:19;8.65;;;5.25;;
20695;SDS011;10507;52.754;13.040;2022-10-23T05:04:48;9.90;;;5.90;;
20695;SDS011;10507;52.754;13.040;2022-10-23T05:07:16;8.63;;;6.15;;
20695;SDS011;10507;52.754;13.040;2022-10-23T05:09:44;9.57;;;6.05;;
20695;SDS011;10507;52.754;13.040;2022-10-23T05:12:15;9.05;;;5.35;;
20695;SDS011;10507;52.754;13.040;2022-10-23T05:14:45;8.23;;;5.65;;
20695;SDS011;10507;52.754;13.040;2022-10-23T05:17:16;8.38;;;5.75;;
20695;SDS011;10507;52.754;13.040;2022-10-23T05:19:47;8.10;;;5.93;;
20695;SDS011;10507;52.754;13.040;2022-10-23T05:22:19;8.90;;;5.10;;
20695;SDS011;10507;52.754;13.040;2022-10-23T05:24:54;9.05;;;5.20;;
20695;SDS011;10507;52.754;13.040;2022-10-23T05:27:24;8.25;;;5.57;;
20695;SDS011;10507;52.754;13.040;2022-10-23T05:29:54;8.27;;;5.07;;
20695;SDS011;10507;52.754;13.040;2022-10-23T05:32:28;8.75;;;5.20;;
20695;SDS011;10507;52.754;13.040;2022-10-23T05:34:58;9.37;;;4.97;;
20695;SDS011;10507;52.754;13.040;2022-10-23T05:37:31;10.32;;;5.50;;
20695;SDS011;10507;52.754;13.040;2022-10-23T05:40:04;9.25;;;5.53;;
20695;SDS011;10507;52.754;13.040;2022-10-23T05:42:34;9.02;;;4.82;;
20695;SDS011;10507;52.754;13.040;2022-10-23T05:45:09;7.38;;;5.03;;
20695;SDS011;10507;52.754;13.040;2022-10-23T05:47:37;9.48;;;5.22;;
20695;SDS011;10507;52.754;13.040;2022-10-23T05:50:06;10.25;;;5.05;;
20695;SDS011;10507;52.754;13.040;2022-10-23T05:52:34;9.07;;;5.55;;
20695;SDS011;10507;52.754;13.040;2022-10-23T05:55:02;10.67;;;5.60;;
20695;SDS011;10507;52.754;13.040;2022-10-23T05:57:31;9.20;;;5.35;;
20695;SDS011;10507;52.754;13.040;2022-10-23T05:59:59;10.23;;;5.85;;
20695;SDS011;10507;52.754;13.040;2022-10-23T06:02:29;9.38;;;5.53;;
20695;SDS011;10507;52.754;13.040;2022-10-23T06:04:57;8.45;;;5.53;;
20695;SDS011;10507;52.754;13.040;2022-10-23T06:07:25;9.63;;;5.60;;
20695;SDS011;10507;52.754;13.040;2022-10-23T06:09:58;10.02;;;4.82;;
20695;SDS011;10507;52.754;13.040;2022-10-23T06:12:28;9.57;;;5.28;;
20695;SDS011;10507;52.754;13.040;2022-10-23T06:14:56;6.97;;;4.90;;
20695;SDS011;10507;52.754;13.040;2022-10-23T06:17:24;10.00;;;6.03;;
20695;SDS011;10507;52.754;13.040;2022-10-23T06:19:53;9.88;;;5.75;;
20695;SDS011;10507;52.754;13.040;2022-10-23T06:22:27;7.18;;;4.70;;
20695;SDS011;10507;52.754;13.040;2022-10-23T06:25:01;8.38;;;5.43;;
20695;SDS011;10507;52.754;13.040;2022-10-23T06:27:29;8.27;;;5.30;;
20695;SDS011;10507;52.754;13.040;2022-10-23T06:29:57;11.75;;;5.85;;
20695;SDS011;10507;52.754;13.040;2022-10-23T06:32:25;11.40;;;6.10;;
20695;SDS011;10507;52.754;13.040;2022-10-23T06:34:54;7.35;;;4.18;;
20695;SDS011;10507;52.754;13.040;2022-10-23T06:37:22;4.15;;;3.13;;
20695;SDS011;10507;52.754;13.040;2022-10-23T06:39:50;6.68;;;3.35;;
20695;SDS011;10507;52.754;13.040;2022-10-23T06:42:18;5.07;;;3.53;;
20695;SDS011;10507;52.754;13.040;2022-10-23T06:44:46;9.77;;;4.50;;
20695;SDS011;10507;52.754;13.040;2022-10-23T06:47:14;6.45;;;4.55;;
20695;SDS011;10507;52.754;13.040;2022-10-23T06:49:42;7.43;;;4.32;;
20695;SDS011;10507;52.754;13.040;2022-10-23T06:52:11;6.25;;;4.03;;
20695;SDS011;10507;52.754;13.040;2022-10-23T06:55:00;6.40;;;3.40;;
20695;SDS011;10507;52.754;13.040;2022-10-23T06:57:28;6.72;;;4.03;;
20695;SDS011;10507;52.754;13.040;2022-10-23T06:59:55;7.70;;;4.32;;
20695;SDS011;10507;52.754;13.040;2022-10-23T07:02:23;6.15;;;3.17;;
20695;SDS011;10507;52.754;13.040;2022-10-23T07:04:52;5.40;;;4.25;;
20695;SDS011;10507;52.754;13.040;2022-10-23T07:07:22;8.32;;;3.95;;
20695;SDS011;10507;52.754;13.040;2022-10-23T07:09:50;6.65;;;4.22;;
20695;SDS011;10507;52.754;13.040;2022-10-23T07:12:17;7.07;;;4.78;;
20695;SDS011;10507;52.754;13.040;2022-10-23T07:14:45;7.32;;;3.70;;
20695;SDS011;10507;52.754;13.040;2022-10-23T07:17:13;6.90;;;3.70;;
20695;SDS011;10507;52.754;13.040;2022-10-23T07:19:41;6.53;;;4.00;;
20695;SDS011;10507;52.754;13.040;2022-10-23T07:22:09;6.82;;;4.30;;
20695;SDS011;10507;52.754;13.040;2022-10-23T07:24:42;6.40;;;4.38;;
20695;SDS011;10507;52.754;13.040;2022-10-23T07:27:13;8.05;;;4.70;;
20695;SDS011;10507;52.754;13.040;2022-10-23T07:29:41;7.53;;;4.85;;
20695;SDS011;10507;52.754;13.040;2022-10-23T07:32:09;9.98;;;5.55;;
20695;SDS011;10507;52.754;13.040;2022-10-23T07:34:38;9.93;;;5.30;;
20695;SDS011;10507;52.754;13.040;2022-10-23T07:37:06;8.95;;;6.13;;
20695;SDS011;10507;52.754;13.040;2022-10-23T07:39:34;10.27;;;5.63;;
20695;SDS011;10507;52.754;13.040;2022-10-23T07:42:04;9.18;;;5.85;;
20695;SDS011;10507;52.754;13.040;2022-10-23T07:44:32;10.43;;;6.55;;
20695;SDS011;10507;52.754;13.040;2022-10-23T07:46:59;9.57;;;5.85;;
20695;SDS011;10507;52.754;13.040;2022-10-23T07:49:27;12.95;;;6.32;;
20695;SDS011;10507;52.754;13.040;2022-10-23T07:51:59;9.32;;;5.55;;
20695;SDS011;10507;52.754;13.040;2022-10-23T07:54:32;8.10;;;5.03;;
20695;SDS011;10507;52.754;13.040;2022-10-23T07:57:00;8.07;;;5.38;;
20695;SDS011;10507;52.754;13.040;2022-10-23T07:59:30;9.60;;;5.70;;
20695;SDS011;10507;52.754;13.040;2022-10-23T08:02:03;7.88;;;5.32;;
20695;SDS011;10507;52.754;13.040;2022-10-23T08:04:31;8.63;;;5.80;;
20695;SDS011;10507;52.754;13.040;2022-10-23T08:06:59;7.85;;;5.75;;
20695;SDS011;10507;52.754;13.040;2022-10-23T08:09:27;9.93;;;6.75;;
20695;SDS011;10507;52.754;13.040;2022-10-23T08:11:55;8.93;;;5.88;;
20695;SDS011;10507;52.754;13.040;2022-10-23T08:14:24;8.75;;;5.57;;
20695;SDS011;10507;52.754;13.040;2022-10-23T08:17:05;9.38;;;6.10;;
20695;SDS011;10507;52.754;13.040;2022-10-23T08:19:38;10.25;;;6.78;;
20695;SDS011;10507;52.754;13.040;2022-10-23T08:22:11;10.82;;;5.82;;
20695;SDS011;10507;52.754;13.040;2022-10-23T08:24:42;8.63;;;5.53;;
20695;SDS011;10507;52.754;13.040;2022-10-23T08:27:12;9.60;;;6.45;;
20695;SDS011;10507;52.754;13.040;2022-10-23T08:29:43;8.93;;;5.43;;
20695;SDS011;10507;52.754;13.040;2022-10-23T08:32:21;11.82;;;5.97;;
20695;SDS011;10507;52.754;13.040;2022-10-23T08:34:49;8.50;;;5.43;;
20695;SDS011;10507;52.754;13.040;2022-10-23T08:37:17;9.95;;;6.18;;
20695;SDS011;10507;52.754;13.040;2022-10-23T08:39:47;9.98;;;5.97;;
20695;SDS011;10507;52.754;13.040;2022-10-23T08:42:22;9.43;;;5.35;;
20695;SDS011;10507;52.754;13.040;2022-10-23T08:44:58;8.05;;;5.20;;
20695;SDS011;10507;52.754;13.040;2022-10-23T08:47:43;10.70;;;5.47;;
20695;SDS011;10507;52.754;13.040;2022-10-23T08:50:23;11.18;;;6.20;;
20695;SDS011;10507;52.754;13.040;2022-10-23T08:52:54;11.85;;;6.32;;
20695;SDS011;10507;52.754;13.040;2022-10-23T08:55:29;11.00;;;5.22;;
20695;SDS011;10507;52.754;13.040;2022-10-23T08:58:00;10.60;;;6.13;;
20695;SDS011;10507;52.754;13.040;2022-10-23T09:00:35;11.88;;;5.82;;
20695;SDS011;10507;52.754;13.040;2022-10-23T09:03:05;12.45;;;6.15;;
20695;SDS011;10507;52.754;13.040;2022-10-23T09:05:35;11.98;;;4.75;;
20695;SDS011;10507;52.754;13.040;2022-10-23T09:08:22;7.63;;;4.60;;
20695;SDS011;10507;52.754;13.040;2022-10-23T09:11:00;7.88;;;4.80;;
20695;SDS011;10507;52.754;13.040;2022-10-23T09:13:39;9.80;;;5.68;;
20695;SDS011;10507;52.754;13.040;2022-10-23T09:16:24;10.73;;;4.72;;
20695;SDS011;10507;52.754;13.040;2022-10-23T09:19:09;11.82;;;4.97;;
20695;SDS011;10507;52.754;13.040;2022-10-23T09:21:42;9.45;;;4.65;;
20695;SDS011;10507;52.754;13.040;2022-10-23T09:24:13;9.77;;;4.70;;
20695;SDS011;10507;52.754;13.040;2022-10-23T09:26:43;11.60;;;4.78;;
20695;SDS011;10507;52.754;13.040;2022-10-23T09:29:16;10.98;;;4.60;;
20695;SDS011;10507;52.754;13.040;2022-10-23T09:31:53;8.32;;;4.28;;
20695;SDS011;10507;52.754;13.040;2022-10-23T09:34:27;7.45;;;3.42;;
20695;SDS011;10507;52.754;13.040;2022-10-23T09:37:16;6.97;;;3.85;;
20695;SDS011;10507;52.754;13.040;2022-10-23T09:39:58;8.65;;;3.75;;
20695;SDS011;10507;52.754;13.040;2022-10-23T09:42:30;7.07;;;3.72;;
20695;SDS011;10507;52.754;13.040;2022-10-23T09:45:19;6.90;;;3.63;;
20695;SDS011;10507;52.754;13.040;2022-10-23T09:48:02;5.95;;;3.42;;
20695;SDS011;10507;52.754;13.040;2022-10-23T09:50:52;6.38;;;3.75;;
20695;SDS011;10507;52.754;13.040;2022-10-23T09:53:24;5.20;;;3.03;;
20695;SDS011;10507;52.754;13.040;2022-10-23T09:56:03;7.28;;;3.00;;
20695;SDS011;10507;52.754;13.040;2022-10-23T09:58:38;7.93;;;3.78;;
20695;SDS011;10507;52.754;13.040;2022-10-23T10:01:21;7.28;;;3.60;;
20695;SDS011;10507;52.754;13.040;2022-10-23T10:03:53;7.43;;;3.40;;
20695;SDS011;10507;52.754;13.040;2022-10-23T10:06:24;6.50;;;3.38;;
20695;SDS011;10507;52.754;13.040;2022-10-23T10:08:56;5.65;;;2.88;;
20695;SDS011;10507;52.754;13.040;2022-10-23T10:11:30;6.18;;;3.13;;
20695;SDS011;10507;52.754;13.040;2022-10-23T10:17:12;8.65;;;3.08;;
20695;SDS011;10507;52.754;13.040;2022-10-23T10:19:51;6.22;;;3.00;;
20695;SDS011;10507;52.754;13.040;2022-10-23T10:22:48;8.20;;;2.80;;
20695;SDS011;10507;52.754;13.040;2022-10-23T10:25:26;4.90;;;2.75;;
20695;SDS011;10507;52.754;13.040;2022-10-23T10:28:07;5.35;;;2.70;;
20695;SDS011;10507;52.754;13.040;2022-10-23T10:31:00;6.45;;;2.20;;
20695;SDS011;10507;52.754;13.040;2022-10-23T10:33:42;4.32;;;2.20;;
20695;SDS011;10507;52.754;13.040;2022-10-23T10:36:18;5.03;;;2.47;;
20695;SDS011;10507;52.754;13.040;2022-10-23T10:39:07;4.07;;;2.00;;
20695;SDS011;10507;52.754;13.040;2022-10-23T10:41:44;4.55;;;1.98;;
20695;SDS011;10507;52.754;13.040;2022-10-23T10:44:27;4.32;;;1.98;;
20695;SDS011;10507;52.754;13.040;2022-10-23T10:47:08;6.03;;;2.47;;
20695;SDS011;10507;52.754;13.040;2022-10-23T10:49:48;4.63;;;2.08;;
20695;SDS011;10507;52.754;13.040;2022-10-23T10:52:30;6.32;;;2.08;;
20695;SDS011;10507;52.754;13.040;2022-10-23T10:55:08;5.78;;;1.92;;
20695;SDS011;10507;52.754;13.040;2022-10-23T10:57:49;4.07;;;1.67;;
20695;SDS011;10507;52.754;13.040;2022-10-23T11:00:25;5.82;;;1.80;;
20695;SDS011;10507;52.754;13.040;2022-10-23T11:02:56;3.67;;;1.92;;
20695;SDS011;10507;52.754;13.040;2022-10-23T11:05:40;5.50;;;2.13;;
20695;SDS011;10507;52.754;13.040;2022-10-23T11:08:11;5.88;;;1.80;;
20695;SDS011;10507;52.754;13.040;2022-10-23T11:10:45;7.32;;;2.05;;
20695;SDS011;10507;52.754;13.040;2022-10-23T11:13:21;5.10;;;1.85;;
20695;SDS011;10507;52.754;13.040;2022-10-23T11:15:54;4.22;;;1.70;;
20695;SDS011;10507;52.754;13.040;2022-10-23T11:18:26;5.03;;;1.65;;
20695;SDS011;10507;52.754;13.040;2022-10-23T11:20:59;3.53;;;1.50;;
20695;SDS011;10507;52.754;13.040;2022-10-23T11:26:40;5.10;;;1.90;;
20695;SDS011;10507;52.754;13.040;2022-10-23T11:32:36;4.78;;;1.70;;
20695;SDS011;10507;52.754;13.040;2022-10-23T11:35:30;3.60;;;1.50;;
20695;SDS011;10507;52.754;13.040;2022-10-23T11:38:16;5.28;;;1.63;;
20695;SDS011;10507;52.754;13.040;2022-10-23T11:40:50;4.53;;;1.40;;
20695;SDS011;10507;52.754;13.040;2022-10-23T11:43:28;8.13;;;1.65;;
20695;SDS011;10507;52.754;13.040;2022-10-23T11:46:10;2.55;;;1.35;;
20695;SDS011;10507;52.754;13.040;2022-10-23T11:48:40;4.00;;;1.50;;
20695;SDS011;10507;52.754;13.040;2022-10-23T11:51:25;3.85;;;1.90;;
20695;SDS011;10507;52.754;13.040;2022-10-23T11:54:05;6.75;;;1.30;;
20695;SDS011;10507;52.754;13.040;2022-10-23T11:56:51;7.22;;;1.70;;
20695;SDS011;10507;52.754;13.040;2022-10-23T11:59:26;4.82;;;1.48;;
20695;SDS011;10507;52.754;13.040;2022-10-23T12:01:58;5.13;;;1.73;;
20695;SDS011;10507;52.754;13.040;2022-10-23T12:04:35;6.60;;;1.70;;
20695;SDS011;10507;52.754;13.040;2022-10-23T12:07:14;5.15;;;1.70;;
20695;SDS011;10507;52.754;13.040;2022-10-23T12:09:59;5.15;;;1.55;;
20695;SDS011;10507;52.754;13.040;2022-10-23T12:12:30;6.85;;;1.60;;
20695;SDS011;10507;52.754;13.040;2022-10-23T12:15:16;3.22;;;1.27;;
20695;SDS011;10507;52.754;13.040;2022-10-23T12:17:49;4.47;;;1.67;;
20695;SDS011;10507;52.754;13.040;2022-10-23T12:20:23;5.70;;;1.63;;
20695;SDS011;10507;52.754;13.040;2022-10-23T12:26:04;4.35;;;1.50;;
20695;SDS011;10507;52.754;13.040;2022-10-23T12:28:46;4.10;;;1.42;;
20695;SDS011;10507;52.754;13.040;2022-10-23T12:31:24;5.18;;;1.50;;
20695;SDS011;10507;52.754;13.040;2022-10-23T12:34:03;5.28;;;1.98;;
20695;SDS011;10507;52.754;13.040;2022-10-23T12:36:46;5.13;;;2.40;;
20695;SDS011;10507;52.754;13.040;2022-10-23T12:39:34;6.18;;;2.08;;
20695;SDS011;10507;52.754;13.040;2022-10-23T12:42:08;6.85;;;2.17;;
20695;SDS011;10507;52.754;13.040;2022-10-23T12:44:44;3.00;;;1.45;;
20695;SDS011;10507;52.754;13.040;2022-10-23T12:47:14;3.58;;;1.30;;
20695;SDS011;10507;52.754;13.040;2022-10-23T12:49:55;7.93;;;2.28;;
20695;SDS011;10507;52.754;13.040;2022-10-23T12:52:24;7.32;;;1.83;;
20695;SDS011;10507;52.754;13.040;2022-10-23T12:55:10;5.68;;;1.65;;
20695;SDS011;10507;52.754;13.040;2022-10-23T12:57:40;2.70;;;1.42;;
20695;SDS011;10507;52.754;13.040;2022-10-23T13:00:14;3.28;;;1.80;;
20695;SDS011;10507;52.754;13.040;2022-10-23T13:02:47;4.97;;;1.27;;
20695;SDS011;10507;52.754;13.040;2022-10-23T13:05:25;5.22;;;1.67;;
20695;SDS011;10507;52.754;13.040;2022-10-23T13:07:54;4.00;;;1.48;;
20695;SDS011;10507;52.754;13.040;2022-10-23T13:10:40;4.05;;;1.73;;
20695;SDS011;10507;52.754;13.040;2022-10-23T13:13:09;5.45;;;1.65;;
20695;SDS011;10507;52.754;13.040;2022-10-23T13:15:49;5.82;;;1.55;;
20695;SDS011;10507;52.754;13.040;2022-10-23T13:21:17;2.95;;;1.40;;
20695;SDS011;10507;52.754;13.040;2022-10-23T13:23:54;4.15;;;1.33;;
20695;SDS011;10507;52.754;13.040;2022-10-23T13:26:31;3.95;;;1.65;;
20695;SDS011;10507;52.754;13.040;2022-10-23T13:29:00;4.47;;;1.40;;
20695;SDS011;10507;52.754;13.040;2022-10-23T13:31:34;4.60;;;1.65;;
20695;SDS011;10507;52.754;13.040;2022-10-23T13:34:17;4.63;;;1.75;;
20695;SDS011;10507;52.754;13.040;2022-10-23T13:36:55;3.92;;;1.52;;
20695;SDS011;10507;52.754;13.040;2022-10-23T13:39:31;5.82;;;1.83;;
20695;SDS011;10507;52.754;13.040;2022-10-23T13:42:09;4.35;;;1.75;;
20695;SDS011;10507;52.754;13.040;2022-10-23T13:44:40;5.43;;;1.95;;
20695;SDS011;10507;52.754;13.040;2022-10-23T13:47:16;4.45;;;1.65;;
20695;SDS011;10507;52.754;13.040;2022-10-23T13:49:51;4.15;;;1.92;;
20695;SDS011;10507;52.754;13.040;2022-10-23T13:52:22;5.80;;;1.77;;
20695;SDS011;10507;52.754;13.040;2022-10-23T13:55:09;5.90;;;1.70;;
20695;SDS011;10507;52.754;13.040;2022-10-23T13:57:47;5.50;;;1.63;;
20695;SDS011;10507;52.754;13.040;2022-10-23T14:00:16;3.72;;;1.30;;
20695;SDS011;10507;52.754;13.040;2022-10-23T14:02:44;6.25;;;2.40;;
20695;SDS011;10507;52.754;13.040;2022-10-23T14:05:20;10.27;;;3.55;;
20695;SDS011;10507;52.754;13.040;2022-10-23T14:07:49;6.45;;;3.30;;
20695;SDS011;10507;52.754;13.040;2022-10-23T14:10:20;5.00;;;2.47;;
20695;SDS011;10507;52.754;13.040;2022-10-23T14:12:52;6.32;;;1.75;;
20695;SDS011;10507;52.754;13.040;2022-10-23T14:15:20;4.18;;;1.20;;
20695;SDS011;10507;52.754;13.040;2022-10-23T14:17:48;2.55;;;1.52;;
20695;SDS011;10507;52.754;13.040;2022-10-23T14:20:27;6.22;;;1.75;;
20695;SDS011;10507;52.754;13.040;2022-10-23T14:22:55;5.93;;;1.85;;
20695;SDS011;10507;52.754;13.040;2022-10-23T14:25:23;6.68;;;1.70;;
20695;SDS011;10507;52.754;13.040;2022-10-23T14:27:51;2.80;;;1.35;;
20695;SDS011;10507;52.754;13.040;2022-10-23T14:30:23;3.88;;;1.58;;
20695;SDS011;10507;52.754;13.040;2022-10-23T14:32:51;5.22;;;1.88;;
20695;SDS011;10507;52.754;13.040;2022-10-23T14:35:21;5.32;;;1.67;;
20695;SDS011;10507;52.754;13.040;2022-10-23T14:37:52;4.28;;;1.70;;
20695;SDS011;10507;52.754;13.040;2022-10-23T14:40:20;6.55;;;1.90;;
20695;SDS011;10507;52.754;13.040;2022-10-23T14:42:47;3.08;;;1.55;;
20695;SDS011;10507;52.754;13.040;2022-10-23T14:45:15;4.75;;;1.73;;
20695;SDS011;10507;52.754;13.040;2022-10-23T14:47:43;4.63;;;1.60;;
20695;SDS011;10507;52.754;13.040;2022-10-23T14:50:12;4.53;;;2.42;;
20695;SDS011;10507;52.754;13.040;2022-10-23T14:52:40;2.28;;;1.40;;
20695;SDS011;10507;52.754;13.040;2022-10-23T14:55:18;5.95;;;2.15;;
20695;SDS011;10507;52.754;13.040;2022-10-23T14:57:46;9.07;;;3.00;;
20695;SDS011;10507;52.754;13.040;2022-10-23T15:00:21;9.57;;;4.18;;
20695;SDS011;10507;52.754;13.040;2022-10-23T15:02:50;10.93;;;3.45;;
20695;SDS011;10507;52.754;13.040;2022-10-23T15:05:18;6.68;;;2.55;;
20695;SDS011;10507;52.754;13.040;2022-10-23T15:07:46;5.63;;;2.92;;
20695;SDS011;10507;52.754;13.040;2022-10-23T15:10:19;6.55;;;2.00;;
20695;SDS011;10507;52.754;13.040;2022-10-23T15:12:47;6.25;;;2.05;;
20695;SDS011;10507;52.754;13.040;2022-10-23T15:15:15;6.47;;;1.95;;
20695;SDS011;10507;52.754;13.040;2022-10-23T15:17:44;4.72;;;1.60;;
20695;SDS011;10507;52.754;13.040;2022-10-23T15:20:11;4.13;;;2.22;;
20695;SDS011;10507;52.754;13.040;2022-10-23T15:22:39;6.57;;;2.97;;
20695;SDS011;10507;52.754;13.040;2022-10-23T15:25:11;7.13;;;3.67;;
20695;SDS011;10507;52.754;13.040;2022-10-23T15:27:44;9.13;;;4.10;;
20695;SDS011;10507;52.754;13.040;2022-10-23T15:30:16;8.82;;;4.53;;
20695;SDS011;10507;52.754;13.040;2022-10-23T15:32:45;10.32;;;4.68;;
20695;SDS011;10507;52.754;13.040;2022-10-23T15:35:15;10.07;;;4.20;;